createdAt,value
2018-12-21T00:01:30.012Z,16.20
2018-12-21T00:03:58.986Z,16.60
2018-12-21T00:06:28.103Z,19.30
2018-12-21T00:08:57.134Z,16.17
2018-12-21T00:11:26.269Z,11.97
2018-12-21T00:13:55.441Z,10.70
2018-12-21T00:16:24.460Z,13.37
2018-12-21T00:18:55.003Z,11.40
2018-12-21T00:21:24.062Z,13.23
2018-12-21T00:23:53.151Z,13.67
2018-12-21T00:26:22.221Z,11.60
2018-12-21T00:28:51.285Z,13.33
2018-12-21T00:31:25.679Z,13.77
2018-12-21T00:34:00.024Z,16.40
2018-12-21T00:36:34.483Z,10.77
2018-12-21T00:39:09.794Z,12.20
2018-12-21T00:41:38.091Z,15.83
2018-12-21T00:44:26.377Z,12.53
2018-12-21T00:46:58.475Z,19.63
2018-12-21T00:49:29.095Z,12.50
2018-12-21T00:51:58.370Z,14.17
2018-12-21T00:54:27.358Z,17.23
2018-12-21T00:56:56.339Z,16.73
2018-12-21T00:59:25.531Z,16.23
2018-12-21T01:01:55.912Z,14.43
2018-12-21T01:04:25.121Z,12.90
2018-12-21T01:06:54.175Z,16.30
2018-12-21T01:09:23.393Z,16.47
2018-12-21T01:11:52.468Z,17.67
2018-12-21T01:14:21.465Z,11.90
2018-12-21T01:16:50.529Z,15.97
2018-12-21T01:19:19.637Z,16.30
2018-12-21T01:21:48.642Z,12.20
2018-12-21T01:24:17.839Z,13.27
2018-12-21T01:26:46.919Z,18.20
2018-12-21T01:29:16.213Z,17.07
2018-12-21T01:31:45.343Z,15.37
2018-12-21T01:34:14.358Z,13.63
2018-12-21T01:36:43.571Z,13.97
2018-12-21T01:39:13.177Z,15.57
2018-12-21T01:41:42.287Z,13.90
2018-12-21T01:44:12.426Z,17.20
2018-12-21T01:46:41.708Z,13.47
2018-12-21T01:49:10.729Z,14.30
2018-12-21T01:51:46.918Z,14.70
2018-12-21T01:54:11.784Z,14.10
2018-12-21T01:56:40.887Z,13.33
2018-12-21T01:59:09.941Z,16.53
2018-12-21T02:01:40.121Z,15.83
2018-12-21T02:04:09.342Z,17.77
2018-12-21T02:06:38.359Z,17.37
2018-12-21T02:09:07.967Z,13.50
2018-12-21T02:11:37.270Z,13.37
2018-12-21T02:14:06.334Z,16.33
2018-12-21T02:16:35.841Z,13.50
2018-12-21T02:19:05.023Z,13.73
2018-12-21T02:21:34.168Z,15.13
2018-12-21T02:24:03.262Z,14.73
2018-12-21T02:26:32.323Z,16.87
2018-12-21T02:29:01.323Z,14.27
2018-12-21T02:31:32.019Z,20.87
2018-12-21T02:34:01.101Z,16.23
2018-12-21T02:36:30.269Z,15.90
2018-12-21T02:38:59.296Z,13.50
2018-12-21T02:41:28.411Z,17.13
2018-12-21T02:43:57.595Z,13.80
2018-12-21T02:46:26.564Z,13.13
2018-12-21T02:48:55.680Z,15.77
2018-12-21T02:51:24.819Z,15.33
2018-12-21T02:53:53.798Z,15.57
2018-12-21T02:56:22.881Z,14.50
2018-12-21T02:58:51.895Z,18.43
2018-12-21T03:01:21.010Z,15.70
2018-12-21T03:03:50.196Z,14.77
2018-12-21T03:06:19.334Z,15.20
2018-12-21T03:08:48.438Z,13.10
2018-12-21T03:11:17.478Z,13.90
2018-12-21T03:13:46.570Z,14.83
2018-12-21T03:16:15.671Z,14.00
2018-12-21T03:18:44.825Z,11.43
2018-12-21T03:21:14.142Z,13.00
2018-12-21T03:23:43.243Z,11.63
2018-12-21T03:26:13.382Z,11.33
2018-12-21T03:28:42.497Z,13.13
2018-12-21T03:31:11.518Z,10.83
2018-12-21T03:33:40.481Z,9.00
2018-12-21T03:36:09.573Z,14.33
2018-12-21T03:38:38.706Z,15.70
2018-12-21T03:41:07.852Z,13.60
2018-12-21T03:43:36.915Z,12.33
2018-12-21T03:46:06.180Z,12.57
2018-12-21T03:48:37.245Z,9.63
2018-12-21T03:51:06.302Z,12.57
2018-12-21T03:53:35.369Z,12.90
2018-12-21T03:56:04.528Z,11.37
2018-12-21T03:58:33.701Z,9.57
2018-12-21T04:01:02.671Z,10.87
2018-12-21T04:03:34.546Z,14.10
2018-12-21T04:06:03.710Z,11.10
2018-12-21T04:08:33.754Z,15.67
2018-12-21T04:11:03.122Z,10.50
2018-12-21T04:13:32.292Z,11.97
2018-12-21T04:16:01.283Z,9.93
2018-12-21T04:18:30.343Z,9.20
2018-12-21T04:20:59.316Z,9.97
2018-12-21T04:23:28.375Z,10.27
2018-12-21T04:25:57.372Z,11.10
2018-12-21T04:28:26.472Z,13.00
2018-12-21T04:30:55.556Z,9.23
2018-12-21T04:33:24.552Z,12.63
2018-12-21T04:35:53.586Z,12.60
2018-12-21T04:38:22.642Z,15.20
2018-12-21T04:40:51.637Z,13.50
2018-12-21T04:43:20.666Z,7.53
2018-12-21T04:45:49.755Z,12.67
2018-12-21T04:48:18.805Z,8.30
2018-12-21T04:50:47.804Z,8.60
2018-12-21T04:53:16.854Z,6.30
2018-12-21T04:55:46.023Z,15.13
2018-12-21T04:58:15.235Z,10.43
2018-12-21T05:00:44.281Z,8.50
2018-12-21T05:03:14.698Z,8.33
2018-12-21T05:05:43.927Z,7.93
2018-12-21T05:08:13.427Z,9.67
2018-12-21T05:10:42.509Z,6.90
2018-12-21T05:13:11.472Z,8.20
2018-12-21T05:15:40.489Z,9.33
2018-12-21T05:18:09.479Z,6.43
2018-12-21T05:20:38.548Z,7.93
2018-12-21T05:23:07.545Z,10.27
2018-12-21T05:25:36.585Z,8.57
2018-12-21T05:28:05.578Z,7.57
2018-12-21T05:30:34.658Z,7.20
2018-12-21T05:33:03.820Z,6.53
2018-12-21T05:35:32.827Z,9.13
2018-12-21T05:38:01.905Z,6.17
2018-12-21T05:40:30.973Z,6.17
2018-12-21T05:42:59.952Z,9.67
2018-12-21T05:45:28.934Z,8.40
2018-12-21T05:47:58.014Z,6.03
2018-12-21T05:50:27.196Z,6.07
2018-12-21T05:53:00.714Z,6.27
2018-12-21T05:55:27.347Z,6.90
2018-12-21T05:57:56.320Z,5.97
2018-12-21T06:00:25.467Z,9.77
2018-12-21T06:02:54.523Z,6.97
2018-12-21T06:05:23.498Z,7.17
2018-12-21T06:07:52.504Z,7.13
2018-12-21T06:10:21.670Z,6.03
2018-12-21T06:12:50.680Z,9.37
2018-12-21T06:15:19.691Z,9.60
2018-12-21T06:17:48.670Z,5.87
2018-12-21T06:20:17.877Z,7.33
2018-12-21T06:22:46.921Z,6.43
2018-12-21T06:25:15.994Z,4.40
2018-12-21T06:27:45.085Z,5.63
2018-12-21T06:30:14.113Z,4.83
2018-12-21T06:32:43.092Z,4.60
2018-12-21T06:35:12.181Z,4.67
2018-12-21T06:37:41.448Z,4.13
2018-12-21T06:40:10.445Z,7.70
2018-12-21T06:42:39.453Z,5.27
2018-12-21T06:45:08.564Z,7.23
2018-12-21T06:47:37.622Z,6.07
2018-12-21T06:50:07.337Z,7.80
2018-12-21T06:52:36.306Z,5.70
2018-12-21T06:55:05.884Z,4.30
2018-12-21T06:57:34.969Z,8.83
2018-12-21T07:00:04.324Z,6.20
2018-12-21T07:02:33.283Z,6.37
2018-12-21T07:05:02.463Z,5.87
2018-12-21T07:07:31.422Z,5.93
2018-12-21T07:10:00.397Z,15.03
2018-12-21T07:12:29.471Z,9.90
2018-12-21T07:14:58.452Z,10.53
2018-12-21T07:17:28.111Z,8.37
2018-12-21T07:19:57.988Z,7.07
2018-12-21T07:22:27.055Z,4.93
2018-12-21T07:24:56.126Z,6.97
2018-12-21T07:27:25.398Z,3.83
2018-12-21T07:29:54.391Z,3.60
2018-12-21T07:32:23.391Z,4.10
2018-12-21T07:34:52.371Z,5.40
2018-12-21T07:37:21.373Z,6.90
2018-12-21T07:39:50.377Z,5.20
2018-12-21T07:42:19.427Z,3.77
2018-12-21T07:44:48.418Z,4.67
2018-12-21T07:47:17.532Z,6.60
2018-12-21T07:49:46.528Z,7.37
2018-12-21T07:52:15.550Z,9.83
2018-12-21T07:54:44.584Z,5.20
2018-12-21T07:57:13.613Z,7.63
2018-12-21T07:59:42.609Z,6.87
2018-12-21T08:02:11.813Z,5.60
2018-12-21T08:04:40.800Z,8.23
2018-12-21T08:07:09.850Z,4.77
2018-12-21T08:09:38.969Z,4.33
2018-12-21T08:12:08.091Z,7.23
2018-12-21T08:14:37.091Z,5.73
2018-12-21T08:17:06.185Z,3.37
2018-12-21T08:19:35.257Z,8.17
2018-12-21T08:22:04.237Z,8.70
2018-12-21T08:24:33.260Z,4.63
2018-12-21T08:27:02.363Z,6.33
2018-12-21T08:29:31.522Z,5.50
2018-12-21T08:32:00.535Z,4.37
2018-12-21T08:34:29.581Z,11.77
2018-12-21T08:36:58.784Z,5.70
2018-12-21T08:39:27.873Z,4.83
2018-12-21T08:41:56.950Z,6.57
2018-12-21T08:44:25.967Z,8.40
2018-12-21T08:46:55.053Z,4.97
2018-12-21T08:49:24.209Z,6.60
2018-12-21T08:51:53.286Z,4.77
2018-12-21T08:54:22.376Z,5.00
2018-12-21T08:56:51.458Z,7.13
2018-12-21T08:59:21.009Z,2.80
2018-12-21T09:01:50.086Z,2.97
2018-12-21T09:04:19.197Z,7.27
2018-12-21T09:06:48.268Z,8.23
2018-12-21T09:09:17.372Z,3.60
2018-12-21T09:11:48.046Z,4.73
2018-12-21T09:14:17.206Z,9.47
2018-12-21T09:16:46.213Z,5.30
2018-12-21T09:19:15.282Z,4.33
2018-12-21T09:21:44.341Z,5.57
2018-12-21T09:24:13.410Z,6.67
2018-12-21T09:26:42.488Z,3.93
2018-12-21T09:29:11.554Z,5.23
2018-12-21T09:31:40.631Z,6.80
2018-12-21T09:34:09.654Z,2.40
2018-12-21T09:36:38.691Z,8.77
2018-12-21T09:39:08.265Z,3.97
2018-12-21T09:41:39.113Z,5.33
2018-12-21T09:44:08.153Z,5.47
2018-12-21T09:46:37.411Z,3.03
2018-12-21T09:49:06.434Z,3.23
2018-12-21T09:51:36.500Z,6.97
2018-12-21T09:54:09.835Z,7.17
2018-12-21T09:56:37.500Z,3.60
2018-12-21T09:59:08.029Z,4.60
2018-12-21T10:01:37.276Z,4.07
2018-12-21T10:04:07.517Z,4.50
2018-12-21T10:06:37.138Z,9.70
2018-12-21T10:09:07.760Z,5.93
2018-12-21T10:11:36.765Z,8.20
2018-12-21T10:14:05.841Z,5.80
2018-12-21T10:16:34.854Z,3.57
2018-12-21T10:19:04.088Z,4.97
2018-12-21T10:21:33.137Z,6.30
2018-12-21T10:24:02.204Z,5.93
2018-12-21T10:26:31.314Z,2.77
2018-12-21T10:29:00.294Z,10.03
2018-12-21T10:31:29.379Z,4.50
2018-12-21T10:33:58.390Z,3.30
2018-12-21T10:36:27.470Z,5.53
2018-12-21T10:38:56.549Z,4.60
2018-12-21T10:41:25.643Z,4.00
2018-12-21T10:43:55.615Z,5.03
2018-12-21T10:46:24.670Z,4.97
2018-12-21T10:48:53.736Z,4.93
2018-12-21T10:51:22.808Z,1.67
2018-12-21T10:56:32.074Z,3.40
2018-12-21T10:59:01.175Z,5.13
2018-12-21T11:01:30.419Z,8.30
2018-12-21T11:03:59.447Z,4.00
2018-12-21T11:06:28.921Z,5.00
2018-12-21T11:08:57.955Z,2.57
2018-12-21T11:11:27.010Z,3.33
2018-12-21T11:13:56.081Z,4.93
2018-12-21T11:16:25.078Z,4.80
2018-12-21T11:18:54.094Z,8.30
2018-12-21T11:21:23.104Z,5.30
2018-12-21T11:23:52.070Z,4.80
2018-12-21T11:26:21.199Z,4.90
2018-12-21T11:28:50.330Z,4.47
2018-12-21T11:31:19.515Z,7.57
2018-12-21T11:33:48.716Z,3.60
2018-12-21T11:36:19.847Z,3.23
2018-12-21T11:38:49.137Z,6.03
2018-12-21T11:41:18.697Z,4.03
2018-12-21T11:43:47.830Z,2.97
2018-12-21T11:46:17.025Z,4.23
2018-12-21T11:48:46.097Z,3.90
2018-12-21T11:51:15.235Z,3.50
2018-12-21T11:53:44.247Z,8.77
2018-12-21T11:56:13.342Z,4.77
2018-12-21T11:58:42.479Z,2.87
2018-12-21T12:01:11.472Z,2.70
2018-12-21T12:03:40.602Z,2.67
2018-12-21T12:06:09.913Z,6.03
2018-12-21T12:08:39.150Z,3.70
2018-12-21T12:11:08.274Z,3.17
2018-12-21T12:13:37.256Z,3.97
2018-12-21T12:16:06.254Z,3.83
2018-12-21T12:18:35.542Z,6.53
2018-12-21T12:21:04.708Z,4.37
2018-12-21T12:23:33.708Z,3.40
2018-12-21T12:26:02.800Z,3.73
2018-12-21T12:28:31.967Z,4.37
2018-12-21T12:31:01.035Z,3.20
2018-12-21T12:33:30.794Z,5.00
2018-12-21T12:35:59.849Z,2.33
2018-12-21T12:38:29.522Z,2.63
2018-12-21T12:41:06.387Z,2.10
2018-12-21T12:43:30.194Z,6.27
2018-12-21T12:45:59.266Z,3.93
2018-12-21T12:48:28.336Z,3.50
2018-12-21T12:50:57.405Z,1.80
2018-12-21T12:53:26.414Z,2.10
2018-12-21T12:55:55.474Z,5.13
2018-12-21T12:58:24.453Z,3.13
2018-12-21T13:00:53.616Z,2.63
2018-12-21T13:03:22.682Z,2.90
2018-12-21T13:05:51.726Z,2.20
2018-12-21T13:08:21.733Z,3.07
2018-12-21T13:10:51.706Z,4.93
2018-12-21T13:13:20.718Z,3.73
2018-12-21T13:15:49.707Z,4.20
2018-12-21T13:18:22.239Z,2.70
2018-12-21T13:20:51.299Z,2.37
2018-12-21T13:23:20.561Z,1.90
2018-12-21T13:25:49.907Z,1.73
2018-12-21T13:28:18.933Z,1.30
2018-12-21T13:30:47.998Z,3.07
2018-12-21T13:33:17.021Z,1.47
2018-12-21T13:35:46.079Z,3.77
2018-12-21T13:38:15.130Z,2.57
2018-12-21T13:40:44.107Z,2.37
2018-12-21T13:43:13.175Z,1.63
2018-12-21T13:45:42.768Z,0.60
2018-12-21T13:48:11.865Z,3.83
2018-12-21T13:50:41.233Z,0.97
2018-12-21T13:53:10.419Z,2.10
2018-12-21T13:55:39.505Z,1.87
2018-12-21T13:58:09.062Z,1.87
2018-12-21T14:00:38.370Z,1.90
2018-12-21T14:03:07.483Z,0.63
2018-12-21T14:05:36.672Z,0.70
2018-12-21T14:08:05.944Z,1.03
2018-12-21T14:10:35.190Z,1.30
2018-12-21T16:05:54.505Z,0.73
2018-12-21T16:13:20.867Z,2.43
2018-12-21T18:38:41.178Z,1.40
2018-12-21T18:43:58.694Z,2.30
2018-12-21T18:46:29.169Z,1.90
2018-12-21T18:50:26.596Z,3.30
2018-12-21T18:56:20.863Z,4.20
2018-12-21T18:59:49.266Z,7.13
2018-12-21T19:02:18.318Z,6.87
2018-12-21T19:04:46.312Z,6.83
2018-12-21T19:07:14.484Z,4.60
2018-12-21T19:09:42.479Z,5.17
2018-12-21T19:12:11.037Z,5.87
2018-12-21T19:14:39.216Z,3.60
2018-12-21T19:17:07.256Z,6.33
2018-12-21T19:19:35.291Z,4.47
2018-12-21T19:22:03.258Z,7.10
2018-12-21T19:24:31.315Z,7.90
2018-12-21T19:26:59.282Z,6.47
2018-12-21T19:29:27.892Z,4.03
2018-12-21T19:31:55.928Z,9.43
2018-12-21T19:34:24.632Z,8.93
2018-12-21T19:36:52.711Z,8.83
2018-12-21T19:39:20.833Z,9.23
2018-12-21T19:41:48.918Z,8.93
2018-12-21T19:44:17.325Z,10.23
2018-12-21T19:46:45.653Z,8.90
2018-12-21T19:49:13.752Z,6.30
2018-12-21T19:51:42.028Z,11.77
2018-12-21T19:54:11.559Z,8.53
2018-12-21T19:56:42.915Z,4.23
2018-12-21T19:59:11.070Z,7.63
2018-12-21T20:01:39.360Z,5.50
2018-12-21T20:04:07.519Z,6.03
2018-12-21T20:06:35.689Z,5.00
2018-12-21T20:09:05.543Z,8.30
2018-12-21T20:11:33.738Z,15.90
2018-12-21T20:14:01.795Z,9.90
2018-12-21T20:16:29.995Z,11.20
2018-12-21T20:18:58.667Z,5.17
2018-12-21T20:21:26.674Z,6.30
2018-12-21T20:23:54.755Z,9.43
2018-12-21T20:26:22.859Z,2.77
2018-12-21T20:28:50.971Z,5.10
2018-12-21T20:31:19.113Z,3.00
2018-12-21T20:33:47.183Z,4.63
2018-12-21T20:36:15.323Z,5.33
2018-12-21T20:38:43.334Z,1.83
2018-12-21T20:41:11.655Z,2.60
2018-12-21T20:43:39.693Z,6.73
2018-12-21T20:46:07.777Z,1.90
2018-12-21T20:48:35.788Z,2.90
2018-12-21T20:51:03.873Z,1.90
2018-12-21T20:53:31.942Z,2.70
2018-12-21T20:55:59.965Z,1.83
2018-12-21T20:58:33.169Z,4.23
2018-12-21T21:01:01.296Z,2.90
2018-12-21T21:03:29.336Z,1.70
2018-12-21T21:05:57.433Z,1.03
2018-12-21T21:08:26.242Z,0.70
2018-12-21T21:10:54.522Z,1.70
2018-12-21T21:13:22.574Z,1.20
2018-12-21T21:15:50.564Z,1.33
2018-12-21T21:18:18.661Z,1.77
2018-12-21T21:20:46.727Z,1.80
2018-12-21T21:23:14.880Z,1.60
2018-12-21T21:25:42.917Z,1.17
2018-12-21T21:28:10.957Z,1.70
2018-12-21T21:30:39.482Z,3.13
2018-12-21T21:33:08.651Z,2.40
2018-12-21T21:35:36.770Z,1.40
2018-12-21T21:38:05.111Z,2.57
2018-12-21T21:40:33.431Z,5.27
2018-12-21T21:43:01.523Z,8.60
2018-12-21T21:45:29.577Z,2.50
2018-12-21T21:47:57.562Z,3.30
2018-12-21T21:50:25.779Z,3.70
2018-12-21T21:52:53.802Z,3.33
2018-12-21T21:55:21.831Z,8.43
2018-12-21T21:57:49.827Z,3.47
2018-12-21T22:00:17.919Z,2.10
2018-12-21T22:02:45.960Z,3.97
2018-12-21T22:05:13.925Z,6.00
2018-12-21T22:07:41.941Z,2.00
2018-12-21T22:10:10.405Z,2.87
2018-12-21T22:12:38.391Z,2.07
2018-12-21T22:15:07.322Z,1.90
2018-12-21T22:17:35.409Z,2.80
2018-12-21T22:20:03.562Z,7.33
2018-12-21T22:22:31.549Z,5.40
2018-12-21T22:24:59.564Z,5.50
2018-12-21T22:27:27.533Z,4.50
2018-12-21T22:29:55.519Z,4.70
2018-12-21T22:32:23.531Z,6.53
2018-12-21T22:34:51.541Z,6.03
2018-12-21T22:37:19.546Z,3.60
2018-12-21T22:39:47.540Z,4.37
2018-12-21T22:42:15.506Z,5.37
2018-12-21T22:44:43.645Z,2.63
2018-12-21T22:47:11.684Z,5.67
2018-12-21T22:49:39.737Z,5.43
2018-12-21T22:52:07.791Z,3.57
2018-12-21T22:54:35.768Z,7.07
2018-12-21T22:57:03.843Z,8.90
2018-12-21T22:59:31.842Z,4.07
2018-12-21T23:01:59.817Z,2.13
2018-12-21T23:04:27.810Z,1.27
2018-12-21T23:06:55.765Z,1.30
2018-12-21T23:09:24.774Z,0.93
2018-12-21T23:11:52.722Z,3.57
2018-12-21T23:14:20.726Z,4.37
2018-12-21T23:16:48.830Z,2.07
2018-12-21T23:19:16.864Z,2.30
2018-12-21T23:21:44.933Z,3.77
2018-12-21T23:24:12.920Z,4.10
2018-12-21T23:26:40.955Z,4.13
2018-12-21T23:29:08.922Z,2.27
2018-12-21T23:31:36.972Z,2.13
2018-12-21T23:34:05.072Z,4.13
2018-12-21T23:36:33.116Z,2.40
2018-12-21T23:39:02.000Z,7.23
2018-12-21T23:41:29.965Z,1.07
2018-12-21T23:43:57.958Z,8.77
2018-12-21T23:46:26.190Z,1.63
2018-12-21T23:48:54.162Z,2.37
2018-12-21T23:51:22.144Z,2.53
2018-12-21T23:53:50.070Z,1.43
2018-12-21T23:56:18.044Z,3.37
2018-12-21T23:58:46.538Z,1.40
